Monday, November 20, 2017, 1:46 PM EST
Back to Local

KFME, Fort Meade / Tipton

Location: Laurel, MD, United States Lat: 39.083
Local Time: 1:46 PM EST (18:46 GMT) Lon: -76.767
Time Zone: US/Eastern Elev: 150 ft

Show me the last for .
Show Coded

Time T Td Feel RH Dir Speed Gust Alt SLP Vis Weather Sky Remarks
2017-11-20 13:24 48 23 42 36 240° 15 18 30.19 - 10 CLR None
2017-11-20 13:06 46 21 39 36 270° 14 18 30.19 - 10 CLR None
2017-11-20 12:45 46 21 39 36 260° 13 18 30.20 - 10 CLR None
2017-11-20 12:24 45 21 37 39 270° 10 17 30.20 - 10 CLR None
2017-11-20 12:06 45 21 37 39 290° 14 20 30.20 - 10 CLR None
2017-11-20 11:45 45 21 37 39 230° 12 17 30.21 - 10 CLR None
2017-11-20 11:24 45 23 37 42 270° 8 18 30.21 - 10 CLR None
2017-11-20 11:06 43 21 37 41 260° 5 10 30.22 - 10 CLR None
2017-11-20 10:45 43 21 38 41 240° 8 - 30.23 - 10 CLR None
2017-11-20 10:24 43 23 35 45 260° 10 17 30.23 - 10 CLR None
2017-11-20 10:06 41 21 32 44 270° 12 21 30.23 - 10 CLR None
2017-11-20 09:45 41 23 36 48 260° 8 - 30.21 - 10 CLR None
2017-11-20 09:24 41 23 34 48 270° 12 - 30.21 - 10 CLR None
2017-11-20 09:06 39 23 30 51 260° 14 18 30.21 - 10 CLR None
2017-11-20 08:45 37 23 27 55 290° 10 21 30.20 - 10 CLR None
2017-11-20 08:24 37 23 27 55 290° 10 21 30.20 - 10 CLR None
2017-11-20 08:06 36 27 29 69 290° 9 - 30.20 - 10 CLR None
2017-11-20 07:45 32 28 26 86 220° 7 - 30.19 - 10 CLR None
2017-11-20 07:24 32 27 27 80 240° 5 - 30.18 - 10 CLR None
2017-11-20 07:06 32 27 - 80 - Calm - 30.16 - 10 CLR None
2017-11-20 06:45 32 28 29 86 260° 3 - 30.15 - 10 CLR None
2017-11-20 06:24 32 28 26 86 240° 6 - 30.14 - 10 CLR None
2017-11-20 06:06 32 27 26 80 250° 6 - 30.13 - 10 CLR None
2017-11-20 05:45 34 25 28 69 280° 7 - 30.12 - 10 CLR None
2017-11-20 05:24 36 27 33 69 290° 3 - 30.12 - 10 SCT050 None
2017-11-20 05:06 36 27 28 69 290° 12 - 30.11 - 10 SCT050 None
2017-11-20 04:45 37 27 31 64 300° 8 - 30.10 - 10 SCT050 None
2017-11-20 04:24 37 25 31 60 290° 8 - 30.08 - 10 BKN050 None
2017-11-20 04:06 39 25 34 55 300° 7 - 30.08 - 10 OVC050 None
2017-11-20 03:45 39 23 28 51 290° 17 25 30.07 - 10 OVC055 None
2017-11-20 03:24 39 25 28 55 290° 18 24 30.07 - 10 OVC055 None
2017-11-20 03:06 39 27 33 60 280° 9 - 30.07 - 10 OVC055 None
2017-11-20 02:45 39 27 29 60 280° 10 21 30.06 - 10 BKN055 None
2017-11-20 02:24 39 27 34 60 280° 7 - 30.06 - 10 SCT050 OVC055 None
2017-11-20 02:06 39 27 34 60 280° 8 - 30.05 - 10 OVC065 None
2017-11-20 01:45 39 27 30 60 300° 15 20 30.04 - 10 OVC065 None
2017-11-20 01:24 39 28 30 64 280° 7 16 30.02 - 10 OVC065 None
2017-11-20 01:06 41 28 36 60 280° 7 - 30.02 - 10 OVC065 None
2017-11-20 00:45 39 28 34 64 300° 8 - 30.01 - 10 BKN065 None
2017-11-20 00:24 39 28 30 64 290° 7 16 30.00 - 10 BKN065 None
2017-11-20 00:06 41 28 35 60 280° 9 - 29.99 - 10 SCT050 SCT065 None
2017-11-19 23:45 41 28 33 60 280° 12 16 29.98 - 10 SCT050 OVC065 None
2017-11-19 23:24 41 28 31 60 280° 18 25 29.98 - 10 SCT046 BKN055 OVC065 None
2017-11-19 23:06 43 30 34 60 280° 13 20 29.98 - 10 SCT046 BKN060 OVC070 None
2017-11-19 22:45 43 28 34 56 290° 16 21 29.96 - 10 SCT044 SCT060 OVC070 None
2017-11-19 22:24 43 28 34 56 280° 10 20 29.95 - 10 OVC065 None
2017-11-19 22:06 43 28 34 56 280° 12 23 29.95 - 10 OVC065 None
2017-11-19 21:45 41 30 33 65 260° 8 16 29.94 - 10 OVC065 None
2017-11-19 21:24 41 28 32 60 270° 10 18 29.93 - 10 SCT065 OVC080 None
2017-11-19 21:06 41 30 33 65 280° 13 16 29.93 - 10 SCT080 None
2017-11-19 20:45 41 30 32 65 270° 10 17 29.92 - 10 CLR None
2017-11-19 20:24 37 28 31 69 270° 8 - 29.91 - 10 CLR None
2017-11-19 20:06 39 28 34 64 270° 8 - 29.91 - 10 CLR None
2017-11-19 19:45 37 28 32 69 270° 7 - 29.90 - 10 SCT070 None
2017-11-19 19:24 41 28 37 60 270° 6 - 29.90 - 10 BKN070 None
2017-11-19 19:06 43 28 38 56 270° 8 - 29.89 - 10 OVC070 None
2017-11-19 18:45 43 27 37 52 270° 9 - 29.89 - 10 OVC070 None
2017-11-19 18:24 43 27 38 52 280° 8 - 29.88 - 10 OVC070 None
2017-11-19 18:06 43 27 37 52 280° 9 - 29.87 - 10 SCT070 None
2017-11-19 17:45 43 27 35 52 280° 13 18 29.86 - 10 CLR None
2017-11-19 17:24 43 28 33 56 290° 20 25 29.84 - 10 SCT060 BKN065 BKN080 None
2017-11-19 17:06 45 28 39 52 280° 12 - 29.83 - 10 SCT050 OVC060 None
2017-11-19 16:45 45 28 37 52 290° 10 20 29.83 - 10 OVC060 None
2017-11-19 16:24 45 28 37 52 280° 10 18 29.82 - 10 OVC060 None
2017-11-19 16:06 45 27 36 48 290° 12 24 29.82 - 10 OVC060 None
2017-11-19 15:45 45 27 35 48 290° 16 28 29.81 - 10 BKN060 None
2017-11-19 15:24 45 28 35 52 300° 24 30 29.80 - 10 OVC050 None
2017-11-19 15:06 46 30 37 52 310° 21 29 29.78 - 10 OVC050 None
2017-11-19 14:45 46 28 38 49 300° 14 25 29.76 - 10 BKN050 None
2017-11-19 14:24 48 28 40 45 290° 15 26 29.76 - 10 BKN050 None
2017-11-19 14:06 48 30 39 49 300° 15 31 29.75 - 10 BKN050 None

Support USWX by starting your Amazon purchase here.